Fredericksburg, Shannon Airport (KEZF)

NameShannon Airport
CityFredericksburg
CountryUnited States
ICAOKEZF
IATA
Altitude26 m
CoordinatesGoogle Map
Live Air TrafficLiveATC.net
METARKEZF 111855Z AUTO 21004KT 10SM CLR 06/M03 A3006 RMK AO2 T00571033
2018-12-11 18:55:00 Wind: South-Southwest (210°) 2.06 m/s - Visibility: 16093.4 m - Temperature: 6 °C - Dew point: -3 °C - Humidity: 52.8% - Pressure: 1017.95 hPa

Sorry, no flights used the airport in this database.